sensor_id;sensor_type;location;lat;lon;timestamp;P1;durP1;ratioP1;P2;durP2;ratioP2
57317;SDS011;43157;50.982;18.132;2022-08-21T00:01:22;14.50;;;6.30;;
57317;SDS011;43157;50.982;18.132;2022-08-21T00:03:50;13.30;;;5.90;;
57317;SDS011;43157;50.982;18.132;2022-08-21T00:06:16;13.80;;;6.60;;
57317;SDS011;43157;50.982;18.132;2022-08-21T00:08:42;14.40;;;6.00;;
57317;SDS011;43157;50.982;18.132;2022-08-21T00:11:08;15.20;;;6.10;;
57317;SDS011;43157;50.982;18.132;2022-08-21T00:13:34;13.80;;;6.50;;
57317;SDS011;43157;50.982;18.132;2022-08-21T00:16:01;13.20;;;6.60;;
57317;SDS011;43157;50.982;18.132;2022-08-21T00:18:28;16.80;;;6.10;;
57317;SDS011;43157;50.982;18.132;2022-08-21T00:20:54;14.00;;;7.10;;
57317;SDS011;43157;50.982;18.132;2022-08-21T00:23:20;14.70;;;7.00;;
57317;SDS011;43157;50.982;18.132;2022-08-21T00:25:46;15.10;;;6.80;;
57317;SDS011;43157;50.982;18.132;2022-08-21T00:28:12;15.30;;;7.50;;
57317;SDS011;43157;50.982;18.132;2022-08-21T00:30:39;14.70;;;7.50;;
57317;SDS011;43157;50.982;18.132;2022-08-21T00:33:05;15.30;;;7.10;;
57317;SDS011;43157;50.982;18.132;2022-08-21T00:35:33;16.20;;;7.30;;
57317;SDS011;43157;50.982;18.132;2022-08-21T00:38:01;15.70;;;7.00;;
57317;SDS011;43157;50.982;18.132;2022-08-21T00:40:31;14.90;;;7.10;;
57317;SDS011;43157;50.982;18.132;2022-08-21T00:43:10;16.50;;;8.20;;
57317;SDS011;43157;50.982;18.132;2022-08-21T00:45:38;16.50;;;8.10;;
57317;SDS011;43157;50.982;18.132;2022-08-21T00:48:04;17.50;;;8.50;;
57317;SDS011;43157;50.982;18.132;2022-08-21T00:50:31;16.60;;;8.70;;
57317;SDS011;43157;50.982;18.132;2022-08-21T00:52:59;17.20;;;7.10;;
57317;SDS011;43157;50.982;18.132;2022-08-21T00:55:25;18.00;;;7.50;;
57317;SDS011;43157;50.982;18.132;2022-08-21T00:57:53;14.30;;;7.10;;
57317;SDS011;43157;50.982;18.132;2022-08-21T01:00:25;17.60;;;8.00;;
57317;SDS011;43157;50.982;18.132;2022-08-21T01:02:59;15.40;;;8.10;;
57317;SDS011;43157;50.982;18.132;2022-08-21T01:05:26;16.60;;;8.00;;
57317;SDS011;43157;50.982;18.132;2022-08-21T01:07:54;15.70;;;7.80;;
57317;SDS011;43157;50.982;18.132;2022-08-21T01:10:22;15.80;;;7.30;;
57317;SDS011;43157;50.982;18.132;2022-08-21T01:12:49;16.40;;;8.00;;
57317;SDS011;43157;50.982;18.132;2022-08-21T01:15:16;16.30;;;7.10;;
57317;SDS011;43157;50.982;18.132;2022-08-21T01:17:42;13.80;;;6.50;;
57317;SDS011;43157;50.982;18.132;2022-08-21T01:20:10;15.60;;;6.30;;
57317;SDS011;43157;50.982;18.132;2022-08-21T01:22:37;14.30;;;7.30;;
57317;SDS011;43157;50.982;18.132;2022-08-21T01:25:04;15.40;;;6.70;;
57317;SDS011;43157;50.982;18.132;2022-08-21T01:27:31;14.00;;;6.90;;
57317;SDS011;43157;50.982;18.132;2022-08-21T01:29:58;13.20;;;6.50;;
57317;SDS011;43157;50.982;18.132;2022-08-21T01:32:28;12.80;;;5.90;;
57317;SDS011;43157;50.982;18.132;2022-08-21T01:34:54;16.00;;;7.00;;
57317;SDS011;43157;50.982;18.132;2022-08-21T01:37:20;14.40;;;5.70;;
57317;SDS011;43157;50.982;18.132;2022-08-21T01:39:46;15.10;;;5.80;;
57317;SDS011;43157;50.982;18.132;2022-08-21T01:42:13;11.90;;;5.60;;
57317;SDS011;43157;50.982;18.132;2022-08-21T01:44:39;13.80;;;5.80;;
57317;SDS011;43157;50.982;18.132;2022-08-21T01:47:06;12.30;;;6.20;;
57317;SDS011;43157;50.982;18.132;2022-08-21T01:49:34;13.60;;;6.10;;
57317;SDS011;43157;50.982;18.132;2022-08-21T01:52:00;17.30;;;7.30;;
57317;SDS011;43157;50.982;18.132;2022-08-21T01:54:26;17.30;;;7.30;;
57317;SDS011;43157;50.982;18.132;2022-08-21T01:56:53;15.30;;;7.40;;
57317;SDS011;43157;50.982;18.132;2022-08-21T01:59:19;15.20;;;7.10;;
57317;SDS011;43157;50.982;18.132;2022-08-21T02:01:46;16.60;;;7.90;;
57317;SDS011;43157;50.982;18.132;2022-08-21T02:04:12;15.00;;;7.30;;
57317;SDS011;43157;50.982;18.132;2022-08-21T02:06:38;16.60;;;8.40;;
57317;SDS011;43157;50.982;18.132;2022-08-21T02:09:07;16.90;;;8.10;;
57317;SDS011;43157;50.982;18.132;2022-08-21T02:11:34;13.90;;;6.60;;
57317;SDS011;43157;50.982;18.132;2022-08-21T02:14:00;15.00;;;7.40;;
57317;SDS011;43157;50.982;18.132;2022-08-21T02:16:25;17.50;;;7.80;;
57317;SDS011;43157;50.982;18.132;2022-08-21T02:18:51;15.10;;;7.70;;
57317;SDS011;43157;50.982;18.132;2022-08-21T02:21:17;16.40;;;8.20;;
57317;SDS011;43157;50.982;18.132;2022-08-21T02:23:43;17.20;;;7.70;;
57317;SDS011;43157;50.982;18.132;2022-08-21T02:26:10;19.10;;;7.90;;
57317;SDS011;43157;50.982;18.132;2022-08-21T02:28:36;16.60;;;7.90;;
57317;SDS011;43157;50.982;18.132;2022-08-21T02:31:03;15.00;;;7.90;;
57317;SDS011;43157;50.982;18.132;2022-08-21T02:33:30;16.90;;;7.50;;
57317;SDS011;43157;50.982;18.132;2022-08-21T02:35:56;19.80;;;7.90;;
57317;SDS011;43157;50.982;18.132;2022-08-21T02:38:24;16.20;;;7.10;;
57317;SDS011;43157;50.982;18.132;2022-08-21T02:40:52;17.50;;;7.50;;
57317;SDS011;43157;50.982;18.132;2022-08-21T02:43:20;19.10;;;8.60;;
57317;SDS011;43157;50.982;18.132;2022-08-21T02:45:48;19.30;;;9.90;;
57317;SDS011;43157;50.982;18.132;2022-08-21T02:48:16;19.50;;;10.20;;
57317;SDS011;43157;50.982;18.132;2022-08-21T02:50:45;19.50;;;9.40;;
57317;SDS011;43157;50.982;18.132;2022-08-21T02:53:31;19.40;;;9.50;;
57317;SDS011;43157;50.982;18.132;2022-08-21T02:55:59;17.40;;;8.40;;
57317;SDS011;43157;50.982;18.132;2022-08-21T02:58:27;14.60;;;7.80;;
57317;SDS011;43157;50.982;18.132;2022-08-21T03:00:55;15.40;;;7.00;;
57317;SDS011;43157;50.982;18.132;2022-08-21T03:03:21;15.80;;;5.80;;
57317;SDS011;43157;50.982;18.132;2022-08-21T03:05:47;13.60;;;4.90;;
57317;SDS011;43157;50.982;18.132;2022-08-21T03:08:14;13.60;;;4.70;;
57317;SDS011;43157;50.982;18.132;2022-08-21T03:10:41;11.90;;;4.20;;
57317;SDS011;43157;50.982;18.132;2022-08-21T03:13:09;10.10;;;3.70;;
57317;SDS011;43157;50.982;18.132;2022-08-21T03:15:36;11.20;;;4.10;;
57317;SDS011;43157;50.982;18.132;2022-08-21T03:18:02;12.90;;;3.90;;
57317;SDS011;43157;50.982;18.132;2022-08-21T03:20:30;10.70;;;3.30;;
57317;SDS011;43157;50.982;18.132;2022-08-21T03:22:57;12.90;;;3.90;;
57317;SDS011;43157;50.982;18.132;2022-08-21T03:25:24;13.90;;;4.00;;
57317;SDS011;43157;50.982;18.132;2022-08-21T03:27:51;9.30;;;3.50;;
57317;SDS011;43157;50.982;18.132;2022-08-21T03:30:18;10.60;;;3.10;;
57317;SDS011;43157;50.982;18.132;2022-08-21T03:32:45;10.20;;;2.30;;
57317;SDS011;43157;50.982;18.132;2022-08-21T03:35:12;9.30;;;2.30;;
57317;SDS011;43157;50.982;18.132;2022-08-21T03:37:39;11.30;;;2.10;;
57317;SDS011;43157;50.982;18.132;2022-08-21T03:40:05;11.70;;;2.40;;
57317;SDS011;43157;50.982;18.132;2022-08-21T03:42:32;9.80;;;2.30;;
57317;SDS011;43157;50.982;18.132;2022-08-21T03:44:58;7.80;;;1.90;;
57317;SDS011;43157;50.982;18.132;2022-08-21T03:47:23;12.60;;;2.40;;
57317;SDS011;43157;50.982;18.132;2022-08-21T03:49:49;8.60;;;1.80;;
57317;SDS011;43157;50.982;18.132;2022-08-21T03:52:15;7.80;;;1.90;;
57317;SDS011;43157;50.982;18.132;2022-08-21T03:54:42;8.60;;;1.90;;
57317;SDS011;43157;50.982;18.132;2022-08-21T03:57:09;9.50;;;1.60;;
57317;SDS011;43157;50.982;18.132;2022-08-21T03:59:36;9.10;;;1.80;;
57317;SDS011;43157;50.982;18.132;2022-08-21T04:02:02;9.70;;;1.80;;
57317;SDS011;43157;50.982;18.132;2022-08-21T04:04:29;10.80;;;2.30;;
57317;SDS011;43157;50.982;18.132;2022-08-21T04:06:56;8.20;;;1.90;;
57317;SDS011;43157;50.982;18.132;2022-08-21T04:09:23;9.60;;;2.20;;
57317;SDS011;43157;50.982;18.132;2022-08-21T04:11:49;8.80;;;1.90;;
57317;SDS011;43157;50.982;18.132;2022-08-21T04:14:16;12.80;;;2.40;;
57317;SDS011;43157;50.982;18.132;2022-08-21T04:16:42;8.50;;;1.90;;
57317;SDS011;43157;50.982;18.132;2022-08-21T04:19:09;9.10;;;2.40;;
57317;SDS011;43157;50.982;18.132;2022-08-21T04:21:36;10.20;;;2.30;;
57317;SDS011;43157;50.982;18.132;2022-08-21T04:24:03;10.70;;;2.90;;
57317;SDS011;43157;50.982;18.132;2022-08-21T04:26:30;9.80;;;2.20;;
57317;SDS011;43157;50.982;18.132;2022-08-21T04:28:56;8.30;;;2.30;;
57317;SDS011;43157;50.982;18.132;2022-08-21T04:31:26;11.70;;;2.50;;
57317;SDS011;43157;50.982;18.132;2022-08-21T04:33:52;8.50;;;2.40;;
57317;SDS011;43157;50.982;18.132;2022-08-21T04:36:18;9.20;;;2.50;;
57317;SDS011;43157;50.982;18.132;2022-08-21T04:38:43;10.40;;;2.60;;
57317;SDS011;43157;50.982;18.132;2022-08-21T04:41:09;8.50;;;2.80;;
57317;SDS011;43157;50.982;18.132;2022-08-21T04:43:35;10.60;;;2.40;;
57317;SDS011;43157;50.982;18.132;2022-08-21T04:46:00;10.60;;;2.70;;
57317;SDS011;43157;50.982;18.132;2022-08-21T04:48:26;10.70;;;2.80;;
57317;SDS011;43157;50.982;18.132;2022-08-21T04:53:52;13.30;;;2.60;;
57317;SDS011;43157;50.982;18.132;2022-08-21T04:56:25;8.30;;;1.90;;
57317;SDS011;43157;50.982;18.132;2022-08-21T04:58:57;9.40;;;2.30;;
57317;SDS011;43157;50.982;18.132;2022-08-21T05:01:25;9.30;;;2.50;;
57317;SDS011;43157;50.982;18.132;2022-08-21T05:03:55;10.60;;;2.90;;
57317;SDS011;43157;50.982;18.132;2022-08-21T05:06:22;10.00;;;2.50;;
57317;SDS011;43157;50.982;18.132;2022-08-21T05:08:49;8.80;;;2.30;;
57317;SDS011;43157;50.982;18.132;2022-08-21T05:11:18;9.90;;;2.70;;
57317;SDS011;43157;50.982;18.132;2022-08-21T05:13:45;11.30;;;2.80;;
57317;SDS011;43157;50.982;18.132;2022-08-21T05:16:11;9.30;;;2.70;;
57317;SDS011;43157;50.982;18.132;2022-08-21T05:18:36;11.00;;;2.60;;
57317;SDS011;43157;50.982;18.132;2022-08-21T05:21:02;7.70;;;2.20;;
57317;SDS011;43157;50.982;18.132;2022-08-21T05:23:28;8.50;;;2.10;;
57317;SDS011;43157;50.982;18.132;2022-08-21T05:25:53;10.60;;;2.60;;
57317;SDS011;43157;50.982;18.132;2022-08-21T05:28:21;9.30;;;2.10;;
57317;SDS011;43157;50.982;18.132;2022-08-21T05:30:46;9.50;;;2.20;;
57317;SDS011;43157;50.982;18.132;2022-08-21T05:33:12;10.80;;;2.30;;
57317;SDS011;43157;50.982;18.132;2022-08-21T05:35:38;9.30;;;2.20;;
57317;SDS011;43157;50.982;18.132;2022-08-21T05:38:05;12.10;;;2.30;;
57317;SDS011;43157;50.982;18.132;2022-08-21T05:40:31;11.90;;;2.50;;
57317;SDS011;43157;50.982;18.132;2022-08-21T05:42:57;9.50;;;2.30;;
57317;SDS011;43157;50.982;18.132;2022-08-21T05:45:26;7.70;;;2.10;;
57317;SDS011;43157;50.982;18.132;2022-08-21T05:47:53;8.70;;;1.90;;
57317;SDS011;43157;50.982;18.132;2022-08-21T05:50:19;12.00;;;2.10;;
57317;SDS011;43157;50.982;18.132;2022-08-21T05:52:45;12.30;;;2.30;;
57317;SDS011;43157;50.982;18.132;2022-08-21T05:55:11;7.40;;;1.80;;
57317;SDS011;43157;50.982;18.132;2022-08-21T05:57:37;9.40;;;2.40;;
57317;SDS011;43157;50.982;18.132;2022-08-21T06:00:07;7.90;;;2.10;;
57317;SDS011;43157;50.982;18.132;2022-08-21T06:02:38;8.40;;;1.80;;
57317;SDS011;43157;50.982;18.132;2022-08-21T06:05:04;10.10;;;1.90;;
57317;SDS011;43157;50.982;18.132;2022-08-21T06:07:31;10.40;;;1.90;;
57317;SDS011;43157;50.982;18.132;2022-08-21T06:09:56;11.90;;;2.30;;
57317;SDS011;43157;50.982;18.132;2022-08-21T06:12:22;10.70;;;2.40;;
57317;SDS011;43157;50.982;18.132;2022-08-21T06:14:48;10.00;;;2.30;;
57317;SDS011;43157;50.982;18.132;2022-08-21T06:17:15;9.50;;;2.80;;
57317;SDS011;43157;50.982;18.132;2022-08-21T06:19:41;10.00;;;2.50;;
57317;SDS011;43157;50.982;18.132;2022-08-21T06:22:07;9.20;;;2.40;;
57317;SDS011;43157;50.982;18.132;2022-08-21T06:24:33;12.70;;;3.20;;
57317;SDS011;43157;50.982;18.132;2022-08-21T06:27:03;11.70;;;3.50;;
57317;SDS011;43157;50.982;18.132;2022-08-21T06:29:33;13.10;;;3.10;;
57317;SDS011;43157;50.982;18.132;2022-08-21T06:32:00;10.50;;;4.20;;
57317;SDS011;43157;50.982;18.132;2022-08-21T06:34:26;12.30;;;4.40;;
57317;SDS011;43157;50.982;18.132;2022-08-21T06:36:51;13.80;;;4.80;;
57317;SDS011;43157;50.982;18.132;2022-08-21T06:39:18;12.00;;;4.90;;
57317;SDS011;43157;50.982;18.132;2022-08-21T06:41:43;13.10;;;4.90;;
57317;SDS011;43157;50.982;18.132;2022-08-21T06:44:09;14.80;;;4.80;;
57317;SDS011;43157;50.982;18.132;2022-08-21T06:46:35;15.10;;;4.50;;
57317;SDS011;43157;50.982;18.132;2022-08-21T06:49:02;14.70;;;4.80;;
57317;SDS011;43157;50.982;18.132;2022-08-21T06:51:28;12.10;;;4.50;;
57317;SDS011;43157;50.982;18.132;2022-08-21T06:53:54;13.10;;;4.10;;
57317;SDS011;43157;50.982;18.132;2022-08-21T06:56:20;11.10;;;4.50;;
57317;SDS011;43157;50.982;18.132;2022-08-21T06:58:46;11.20;;;4.20;;
57317;SDS011;43157;50.982;18.132;2022-08-21T07:01:11;11.20;;;4.70;;
57317;SDS011;43157;50.982;18.132;2022-08-21T07:03:39;9.60;;;2.40;;
57317;SDS011;43157;50.982;18.132;2022-08-21T07:06:06;9.50;;;2.60;;
57317;SDS011;43157;50.982;18.132;2022-08-21T07:08:34;10.00;;;3.40;;
57317;SDS011;43157;50.982;18.132;2022-08-21T07:11:01;8.70;;;2.50;;
57317;SDS011;43157;50.982;18.132;2022-08-21T07:13:29;8.70;;;2.50;;
57317;SDS011;43157;50.982;18.132;2022-08-21T07:15:55;10.00;;;2.60;;
57317;SDS011;43157;50.982;18.132;2022-08-21T07:18:21;8.10;;;1.60;;
57317;SDS011;43157;50.982;18.132;2022-08-21T07:20:48;7.00;;;1.60;;
57317;SDS011;43157;50.982;18.132;2022-08-21T07:23:24;6.60;;;1.40;;
57317;SDS011;43157;50.982;18.132;2022-08-21T07:25:53;4.40;;;1.00;;
57317;SDS011;43157;50.982;18.132;2022-08-21T07:28:19;5.50;;;1.00;;
57317;SDS011;43157;50.982;18.132;2022-08-21T07:30:45;4.40;;;1.10;;
57317;SDS011;43157;50.982;18.132;2022-08-21T07:33:11;7.70;;;1.10;;
57317;SDS011;43157;50.982;18.132;2022-08-21T07:35:38;3.20;;;0.70;;
57317;SDS011;43157;50.982;18.132;2022-08-21T07:38:04;1.90;;;0.60;;
57317;SDS011;43157;50.982;18.132;2022-08-21T07:40:30;2.70;;;0.40;;
57317;SDS011;43157;50.982;18.132;2022-08-21T07:42:55;4.20;;;0.50;;
57317;SDS011;43157;50.982;18.132;2022-08-21T07:45:21;2.40;;;0.30;;
57317;SDS011;43157;50.982;18.132;2022-08-21T07:47:49;2.30;;;0.40;;
57317;SDS011;43157;50.982;18.132;2022-08-21T07:50:15;1.60;;;0.30;;
57317;SDS011;43157;50.982;18.132;2022-08-21T07:52:42;2.30;;;0.20;;
57317;SDS011;43157;50.982;18.132;2022-08-21T07:55:11;2.90;;;0.20;;
57317;SDS011;43157;50.982;18.132;2022-08-21T07:57:41;1.90;;;0.20;;
57317;SDS011;43157;50.982;18.132;2022-08-21T08:00:08;2.70;;;0.30;;
57317;SDS011;43157;50.982;18.132;2022-08-21T08:02:36;1.40;;;0.30;;
57317;SDS011;43157;50.982;18.132;2022-08-21T08:05:05;1.20;;;0.20;;
57317;SDS011;43157;50.982;18.132;2022-08-21T08:07:33;0.70;;;0.20;;
57317;SDS011;43157;50.982;18.132;2022-08-21T08:10:00;1.20;;;0.20;;
57317;SDS011;43157;50.982;18.132;2022-08-21T08:12:26;3.30;;;0.30;;
57317;SDS011;43157;50.982;18.132;2022-08-21T08:14:58;1.20;;;0.20;;
57317;SDS011;43157;50.982;18.132;2022-08-21T08:17:25;2.00;;;0.40;;
57317;SDS011;43157;50.982;18.132;2022-08-21T08:19:51;1.70;;;0.10;;
57317;SDS011;43157;50.982;18.132;2022-08-21T08:22:19;0.70;;;0.20;;
57317;SDS011;43157;50.982;18.132;2022-08-21T08:24:47;2.50;;;0.10;;
57317;SDS011;43157;50.982;18.132;2022-08-21T08:27:14;0.90;;;0.10;;
57317;SDS011;43157;50.982;18.132;2022-08-21T08:29:40;1.40;;;0.20;;
57317;SDS011;43157;50.982;18.132;2022-08-21T08:32:06;1.30;;;0.10;;
57317;SDS011;43157;50.982;18.132;2022-08-21T08:34:36;1.60;;;0.20;;
57317;SDS011;43157;50.982;18.132;2022-08-21T08:37:03;0.90;;;0.20;;
57317;SDS011;43157;50.982;18.132;2022-08-21T08:39:29;1.80;;;0.10;;
57317;SDS011;43157;50.982;18.132;2022-08-21T08:42:01;1.80;;;0.20;;
57317;SDS011;43157;50.982;18.132;2022-08-21T08:44:31;1.40;;;0.20;;
57317;SDS011;43157;50.982;18.132;2022-08-21T08:46:57;2.20;;;0.20;;
57317;SDS011;43157;50.982;18.132;2022-08-21T08:49:24;1.10;;;0.20;;
57317;SDS011;43157;50.982;18.132;2022-08-21T08:51:57;0.40;;;0.20;;
57317;SDS011;43157;50.982;18.132;2022-08-21T08:54:29;2.10;;;0.30;;
57317;SDS011;43157;50.982;18.132;2022-08-21T08:56:58;0.50;;;0.10;;
57317;SDS011;43157;50.982;18.132;2022-08-21T08:59:26;1.50;;;0.20;;
57317;SDS011;43157;50.982;18.132;2022-08-21T09:01:53;0.80;;;0.20;;
57317;SDS011;43157;50.982;18.132;2022-08-21T09:04:23;1.60;;;0.10;;
57317;SDS011;43157;50.982;18.132;2022-08-21T09:15:33;1.90;;;0.80;;
57317;SDS011;43157;50.982;18.132;2022-08-21T09:20:47;1.50;;;0.20;;
57317;SDS011;43157;50.982;18.132;2022-08-21T09:26:14;0.80;;;0.20;;
57317;SDS011;43157;50.982;18.132;2022-08-21T09:28:40;1.50;;;0.20;;
57317;SDS011;43157;50.982;18.132;2022-08-21T09:31:08;0.90;;;0.20;;
57317;SDS011;43157;50.982;18.132;2022-08-21T09:33:36;1.10;;;0.20;;
57317;SDS011;43157;50.982;18.132;2022-08-21T09:36:02;1.00;;;0.20;;
57317;SDS011;43157;50.982;18.132;2022-08-21T09:38:30;1.50;;;0.30;;
57317;SDS011;43157;50.982;18.132;2022-08-21T09:41:05;1.10;;;0.30;;
57317;SDS011;43157;50.982;18.132;2022-08-21T09:43:36;0.60;;;0.20;;
57317;SDS011;43157;50.982;18.132;2022-08-21T09:46:10;0.80;;;0.10;;
57317;SDS011;43157;50.982;18.132;2022-08-21T09:48:55;2.30;;;0.20;;
57317;SDS011;43157;50.982;18.132;2022-08-21T09:51:26;1.00;;;0.20;;
57317;SDS011;43157;50.982;18.132;2022-08-21T09:54:00;1.10;;;0.20;;
57317;SDS011;43157;50.982;18.132;2022-08-21T09:59:37;0.50;;;0.20;;
57317;SDS011;43157;50.982;18.132;2022-08-21T10:02:21;0.50;;;0.20;;
57317;SDS011;43157;50.982;18.132;2022-08-21T10:04:50;0.70;;;0.30;;
57317;SDS011;43157;50.982;18.132;2022-08-21T10:07:19;3.00;;;0.30;;
57317;SDS011;43157;50.982;18.132;2022-08-21T10:09:57;2.10;;;0.40;;
57317;SDS011;43157;50.982;18.132;2022-08-21T10:12:25;0.60;;;0.30;;
57317;SDS011;43157;50.982;18.132;2022-08-21T10:20:45;1.10;;;0.30;;
57317;SDS011;43157;50.982;18.132;2022-08-21T10:34:23;2.00;;;0.60;;
57317;SDS011;43157;50.982;18.132;2022-08-21T10:40:04;2.20;;;0.60;;
57317;SDS011;43157;50.982;18.132;2022-08-21T10:45:27;2.60;;;0.80;;
57317;SDS011;43157;50.982;18.132;2022-08-21T10:47:55;2.10;;;0.80;;
57317;SDS011;43157;50.982;18.132;2022-08-21T10:50:26;4.70;;;1.10;;
57317;SDS011;43157;50.982;18.132;2022-08-21T10:55:55;4.30;;;1.40;;
57317;SDS011;43157;50.982;18.132;2022-08-21T10:58:25;4.70;;;1.50;;
57317;SDS011;43157;50.982;18.132;2022-08-21T11:00:59;5.00;;;1.80;;
57317;SDS011;43157;50.982;18.132;2022-08-21T11:03:34;4.20;;;1.70;;
57317;SDS011;43157;50.982;18.132;2022-08-21T11:08:33;4.90;;;1.90;;
57317;SDS011;43157;50.982;18.132;2022-08-21T11:11:14;6.50;;;2.30;;
57317;SDS011;43157;50.982;18.132;2022-08-21T11:13:52;6.80;;;2.10;;
57317;SDS011;43157;50.982;18.132;2022-08-21T11:16:36;6.30;;;2.40;;
57317;SDS011;43157;50.982;18.132;2022-08-21T11:21:44;9.10;;;3.10;;
57317;SDS011;43157;50.982;18.132;2022-08-21T11:24:31;8.20;;;3.10;;
57317;SDS011;43157;50.982;18.132;2022-08-21T11:29:57;8.40;;;3.50;;
57317;SDS011;43157;50.982;18.132;2022-08-21T11:32:28;8.00;;;3.10;;
57317;SDS011;43157;50.982;18.132;2022-08-21T11:51:21;7.30;;;3.00;;
57317;SDS011;43157;50.982;18.132;2022-08-21T11:56:32;8.20;;;2.50;;
57317;SDS011;43157;50.982;18.132;2022-08-21T11:59:08;7.30;;;2.30;;
57317;SDS011;43157;50.982;18.132;2022-08-21T12:01:42;7.60;;;2.70;;
57317;SDS011;43157;50.982;18.132;2022-08-21T12:04:16;6.90;;;2.70;;
57317;SDS011;43157;50.982;18.132;2022-08-21T12:07:16;7.10;;;2.50;;
57317;SDS011;43157;50.982;18.132;2022-08-21T12:09:55;8.90;;;3.40;;
57317;SDS011;43157;50.982;18.132;2022-08-21T12:12:24;9.20;;;3.20;;
57317;SDS011;43157;50.982;18.132;2022-08-21T12:15:03;8.10;;;3.20;;
57317;SDS011;43157;50.982;18.132;2022-08-21T12:17:37;7.40;;;2.90;;
57317;SDS011;43157;50.982;18.132;2022-08-21T12:22:49;7.90;;;3.00;;
57317;SDS011;43157;50.982;18.132;2022-08-21T12:25:41;7.10;;;3.10;;
57317;SDS011;43157;50.982;18.132;2022-08-21T12:28:22;8.80;;;2.90;;
57317;SDS011;43157;50.982;18.132;2022-08-21T12:30:48;7.20;;;2.90;;
57317;SDS011;43157;50.982;18.132;2022-08-21T12:33:35;7.80;;;2.80;;
57317;SDS011;43157;50.982;18.132;2022-08-21T12:36:06;7.70;;;2.90;;
57317;SDS011;43157;50.982;18.132;2022-08-21T12:38:42;8.30;;;2.70;;
57317;SDS011;43157;50.982;18.132;2022-08-21T12:41:19;7.50;;;2.50;;
57317;SDS011;43157;50.982;18.132;2022-08-21T12:43:51;7.40;;;3.00;;
57317;SDS011;43157;50.982;18.132;2022-08-21T12:46:30;6.90;;;2.60;;
57317;SDS011;43157;50.982;18.132;2022-08-21T12:49:03;8.10;;;3.00;;
57317;SDS011;43157;50.982;18.132;2022-08-21T12:51:54;10.50;;;2.60;;
57317;SDS011;43157;50.982;18.132;2022-08-21T12:54:28;7.30;;;2.60;;
57317;SDS011;43157;50.982;18.132;2022-08-21T12:56:58;7.80;;;2.60;;
57317;SDS011;43157;50.982;18.132;2022-08-21T12:59:29;6.40;;;2.30;;
57317;SDS011;43157;50.982;18.132;2022-08-21T13:01:55;7.20;;;2.60;;
57317;SDS011;43157;50.982;18.132;2022-08-21T13:04:24;8.10;;;2.40;;
57317;SDS011;43157;50.982;18.132;2022-08-21T13:06:57;6.60;;;2.70;;
57317;SDS011;43157;50.982;18.132;2022-08-21T13:09:25;7.00;;;2.70;;
57317;SDS011;43157;50.982;18.132;2022-08-21T13:11:53;6.70;;;2.40;;
57317;SDS011;43157;50.982;18.132;2022-08-21T13:14:24;6.90;;;2.50;;
57317;SDS011;43157;50.982;18.132;2022-08-21T13:16:55;6.10;;;2.20;;
57317;SDS011;43157;50.982;18.132;2022-08-21T13:19:22;7.60;;;2.50;;
57317;SDS011;43157;50.982;18.132;2022-08-21T13:21:49;8.30;;;2.40;;
57317;SDS011;43157;50.982;18.132;2022-08-21T13:24:25;7.30;;;2.60;;
57317;SDS011;43157;50.982;18.132;2022-08-21T13:26:52;7.90;;;2.50;;
57317;SDS011;43157;50.982;18.132;2022-08-21T13:29:19;6.40;;;2.10;;
57317;SDS011;43157;50.982;18.132;2022-08-21T13:31:54;8.10;;;2.70;;
57317;SDS011;43157;50.982;18.132;2022-08-21T13:34:29;6.90;;;2.40;;
57317;SDS011;43157;50.982;18.132;2022-08-21T13:36:59;11.60;;;3.70;;
57317;SDS011;43157;50.982;18.132;2022-08-21T13:39:28;7.70;;;2.20;;
57317;SDS011;43157;50.982;18.132;2022-08-21T13:41:55;6.30;;;2.50;;
57317;SDS011;43157;50.982;18.132;2022-08-21T13:44:24;6.40;;;2.50;;
57317;SDS011;43157;50.982;18.132;2022-08-21T13:46:56;7.70;;;2.10;;
57317;SDS011;43157;50.982;18.132;2022-08-21T13:49:26;5.70;;;1.70;;
57317;SDS011;43157;50.982;18.132;2022-08-21T13:51:54;6.40;;;2.00;;
57317;SDS011;43157;50.982;18.132;2022-08-21T13:54:22;5.00;;;1.60;;
57317;SDS011;43157;50.982;18.132;2022-08-21T13:56:51;6.80;;;2.20;;
57317;SDS011;43157;50.982;18.132;2022-08-21T13:59:27;4.80;;;1.70;;
57317;SDS011;43157;50.982;18.132;2022-08-21T14:01:56;6.10;;;2.00;;
57317;SDS011;43157;50.982;18.132;2022-08-21T14:04:43;6.30;;;1.80;;
57317;SDS011;43157;50.982;18.132;2022-08-21T14:07:19;5.10;;;1.60;;
57317;SDS011;43157;50.982;18.132;2022-08-21T14:09:49;6.60;;;1.90;;
57317;SDS011;43157;50.982;18.132;2022-08-21T14:12:16;6.30;;;1.90;;
57317;SDS011;43157;50.982;18.132;2022-08-21T14:15:03;5.80;;;1.90;;
57317;SDS011;43157;50.982;18.132;2022-08-21T14:17:32;6.20;;;2.10;;
57317;SDS011;43157;50.982;18.132;2022-08-21T14:20:05;5.10;;;1.60;;
57317;SDS011;43157;50.982;18.132;2022-08-21T14:22:43;6.70;;;2.00;;
57317;SDS011;43157;50.982;18.132;2022-08-21T14:25:26;5.70;;;1.90;;
57317;SDS011;43157;50.982;18.132;2022-08-21T14:28:07;6.70;;;2.20;;
57317;SDS011;43157;50.982;18.132;2022-08-21T14:30:50;6.10;;;2.10;;
57317;SDS011;43157;50.982;18.132;2022-08-21T14:33:21;6.40;;;2.10;;
57317;SDS011;43157;50.982;18.132;2022-08-21T14:35:52;5.10;;;1.80;;
57317;SDS011;43157;50.982;18.132;2022-08-21T14:38:19;6.30;;;2.10;;
57317;SDS011;43157;50.982;18.132;2022-08-21T14:40:47;5.80;;;1.90;;
57317;SDS011;43157;50.982;18.132;2022-08-21T14:43:15;7.00;;;1.90;;
57317;SDS011;43157;50.982;18.132;2022-08-21T14:45:41;5.90;;;2.00;;
57317;SDS011;43157;50.982;18.132;2022-08-21T14:48:09;6.90;;;2.20;;
57317;SDS011;43157;50.982;18.132;2022-08-21T14:50:35;6.40;;;2.20;;
57317;SDS011;43157;50.982;18.132;2022-08-21T14:53:01;6.80;;;2.00;;
57317;SDS011;43157;50.982;18.132;2022-08-21T14:55:27;5.40;;;1.80;;
57317;SDS011;43157;50.982;18.132;2022-08-21T14:57:53;5.10;;;1.60;;
57317;SDS011;43157;50.982;18.132;2022-08-21T15:00:22;4.50;;;1.50;;
57317;SDS011;43157;50.982;18.132;2022-08-21T15:02:49;5.90;;;1.80;;
57317;SDS011;43157;50.982;18.132;2022-08-21T15:05:16;5.50;;;1.80;;
57317;SDS011;43157;50.982;18.132;2022-08-21T15:07:43;5.30;;;1.60;;
57317;SDS011;43157;50.982;18.132;2022-08-21T15:10:12;8.80;;;2.10;;
57317;SDS011;43157;50.982;18.132;2022-08-21T15:12:38;5.10;;;1.90;;
57317;SDS011;43157;50.982;18.132;2022-08-21T15:15:05;6.70;;;2.20;;
57317;SDS011;43157;50.982;18.132;2022-08-21T15:17:32;7.10;;;2.20;;
57317;SDS011;43157;50.982;18.132;2022-08-21T15:19:59;6.80;;;2.60;;
57317;SDS011;43157;50.982;18.132;2022-08-21T15:22:25;7.30;;;2.40;;
57317;SDS011;43157;50.982;18.132;2022-08-21T15:24:51;8.30;;;3.10;;
57317;SDS011;43157;50.982;18.132;2022-08-21T15:27:17;7.90;;;3.00;;
57317;SDS011;43157;50.982;18.132;2022-08-21T15:29:45;8.70;;;3.60;;
57317;SDS011;43157;50.982;18.132;2022-08-21T15:32:18;12.10;;;3.90;;
57317;SDS011;43157;50.982;18.132;2022-08-21T15:34:44;8.90;;;2.90;;
57317;SDS011;43157;50.982;18.132;2022-08-21T15:37:10;8.30;;;3.20;;
57317;SDS011;43157;50.982;18.132;2022-08-21T15:39:36;9.20;;;3.10;;
57317;SDS011;43157;50.982;18.132;2022-08-21T15:42:02;7.80;;;3.00;;
57317;SDS011;43157;50.982;18.132;2022-08-21T15:44:28;8.80;;;3.20;;
57317;SDS011;43157;50.982;18.132;2022-08-21T15:46:55;10.00;;;4.10;;
57317;SDS011;43157;50.982;18.132;2022-08-21T15:49:22;9.80;;;3.70;;
57317;SDS011;43157;50.982;18.132;2022-08-21T15:51:49;8.70;;;3.50;;
57317;SDS011;43157;50.982;18.132;2022-08-21T15:54:15;10.00;;;4.00;;